createdAt,value
2022-11-28T00:00:10.525Z,1009.37
2022-11-28T00:01:10.619Z,1009.32
2022-11-28T00:02:10.561Z,1009.31
2022-11-28T00:03:10.593Z,1009.34
2022-11-28T00:04:10.474Z,1009.30
2022-11-28T00:05:10.457Z,1009.28
2022-11-28T00:06:10.476Z,1009.30
2022-11-28T00:07:10.522Z,1009.32
2022-11-28T00:08:10.447Z,1009.28
2022-11-28T00:09:10.382Z,1009.27
2022-11-28T00:10:10.399Z,1009.18
2022-11-28T00:11:10.383Z,1009.17
2022-11-28T00:12:10.369Z,1009.19
2022-11-28T00:13:10.469Z,1009.15
2022-11-28T00:14:10.380Z,1009.10
2022-11-28T00:15:10.295Z,1009.14
2022-11-28T00:16:10.454Z,1009.15
2022-11-28T00:17:10.276Z,1009.10
2022-11-28T00:18:10.293Z,1009.09
2022-11-28T00:19:10.322Z,1009.08
2022-11-28T00:20:10.258Z,1009.13
2022-11-28T00:21:10.252Z,1009.12
2022-11-28T00:22:10.283Z,1009.14
2022-11-28T00:23:10.185Z,1009.08
2022-11-28T00:24:10.242Z,1009.07
2022-11-28T00:25:10.284Z,1009.12
2022-11-28T00:26:10.185Z,1009.06
2022-11-28T00:27:10.163Z,1008.99
2022-11-28T00:28:10.153Z,1009.06
2022-11-28T00:29:10.165Z,1009.09
2022-11-28T00:30:10.179Z,1009.08
2022-11-28T00:31:10.200Z,1009.08
2022-11-28T00:32:10.138Z,1009.07
2022-11-28T00:33:10.093Z,1009.05
2022-11-28T00:34:10.104Z,1009.06
2022-11-28T00:35:10.029Z,1009.04
2022-11-28T00:36:10.079Z,1009.04
2022-11-28T00:37:10.109Z,1009.01
2022-11-28T00:38:10.021Z,1008.94
2022-11-28T00:39:10.144Z,1008.95
2022-11-28T00:40:10.000Z,1008.91
2022-11-28T00:41:09.988Z,1008.93
2022-11-28T00:42:09.986Z,1008.91
2022-11-28T00:43:10.049Z,1008.90
2022-11-28T00:44:09.965Z,1008.91
2022-11-28T00:45:09.909Z,1008.92
2022-11-28T00:46:09.943Z,1008.87
2022-11-28T00:47:09.889Z,1008.88
2022-11-28T00:48:09.940Z,1008.85
2022-11-28T00:49:09.961Z,1008.86
2022-11-28T00:50:09.850Z,1008.88
2022-11-28T00:51:09.839Z,1008.83
2022-11-28T00:52:09.832Z,1008.93
2022-11-28T00:53:09.817Z,1008.88
2022-11-28T00:54:09.831Z,1008.81
2022-11-28T00:55:09.888Z,1008.87
2022-11-28T00:56:09.813Z,1008.73
2022-11-28T00:57:09.734Z,1008.77
2022-11-28T00:58:09.755Z,1008.65
2022-11-28T00:59:09.732Z,1008.60
2022-11-28T01:00:09.727Z,1008.55
2022-11-28T01:01:09.816Z,1008.55
2022-11-28T01:02:09.783Z,1008.46
2022-11-28T01:03:09.653Z,1008.46
2022-11-28T01:04:09.665Z,1008.47
2022-11-28T01:05:09.701Z,1008.46
2022-11-28T01:06:09.671Z,1008.50
2022-11-28T01:07:09.716Z,1008.47
2022-11-28T01:08:09.640Z,1008.42
2022-11-28T01:09:09.575Z,1008.48
2022-11-28T01:10:09.586Z,1008.48
2022-11-28T01:11:09.573Z,1008.48
2022-11-28T01:12:09.558Z,1008.53
2022-11-28T01:13:09.563Z,1008.49
2022-11-28T01:14:09.560Z,1008.51
2022-11-28T01:15:09.497Z,1008.51
2022-11-28T01:16:09.680Z,1008.54
2022-11-28T01:17:09.477Z,1008.53
2022-11-28T01:18:09.486Z,1008.51
2022-11-28T01:19:09.522Z,1008.48
2022-11-28T01:20:09.454Z,1008.51
2022-11-28T01:21:09.438Z,1008.51
2022-11-28T01:22:09.404Z,1008.46
2022-11-28T01:23:09.440Z,1008.50
2022-11-28T01:24:09.376Z,1008.50
2022-11-28T01:25:09.552Z,1008.46
2022-11-28T01:26:09.376Z,1008.46
2022-11-28T01:27:09.379Z,1008.43
2022-11-28T01:28:09.381Z,1008.36
2022-11-28T01:29:09.339Z,1008.37
2022-11-28T01:30:09.309Z,1008.32
2022-11-28T01:31:09.561Z,1008.33
2022-11-28T01:32:09.277Z,1008.30
2022-11-28T01:33:09.341Z,1008.26
2022-11-28T01:34:09.276Z,1008.22
2022-11-28T01:35:09.272Z,1008.23
2022-11-28T01:36:09.233Z,1008.19
2022-11-28T01:37:09.309Z,1008.21
2022-11-28T01:38:09.217Z,1008.15
2022-11-28T01:39:09.211Z,1008.16
2022-11-28T01:40:09.218Z,1008.11
2022-11-28T01:41:09.173Z,1008.07
2022-11-28T01:42:09.136Z,1008.08
2022-11-28T01:43:09.246Z,1007.99
2022-11-28T01:44:09.105Z,1008.01
2022-11-28T01:45:09.150Z,1007.97
2022-11-28T01:46:09.145Z,1008.02
2022-11-28T01:47:09.137Z,1008.02
2022-11-28T01:48:09.105Z,1008.04
2022-11-28T01:49:09.114Z,1008.07
2022-11-28T01:50:09.044Z,1007.98
2022-11-28T01:51:09.072Z,1007.97
2022-11-28T01:52:09.044Z,1007.99
2022-11-28T01:53:09.018Z,1008.05
2022-11-28T01:54:08.975Z,1007.97
2022-11-28T01:55:09.158Z,1007.98
2022-11-28T01:56:08.946Z,1008.00
2022-11-28T01:57:09.001Z,1007.98
2022-11-28T01:58:08.969Z,1007.95
2022-11-28T01:59:08.974Z,1007.93
2022-11-28T02:00:08.939Z,1007.96
2022-11-28T02:01:09.112Z,1007.90
2022-11-28T02:02:08.982Z,1007.89
2022-11-28T02:03:08.925Z,1007.93
2022-11-28T02:04:08.839Z,1007.89
2022-11-28T02:05:08.895Z,1007.88
2022-11-28T02:06:08.859Z,1007.88
2022-11-28T02:07:08.968Z,1007.87
2022-11-28T02:08:08.800Z,1007.87
2022-11-28T02:09:08.846Z,1007.89
2022-11-28T02:10:08.797Z,1007.88
2022-11-28T02:11:08.813Z,1007.81
2022-11-28T02:12:08.780Z,1007.87
2022-11-28T02:13:08.812Z,1007.83
2022-11-28T02:14:08.709Z,1007.83
2022-11-28T02:15:08.758Z,1007.86
2022-11-28T02:16:08.738Z,1007.88
2022-11-28T02:17:08.742Z,1007.84
2022-11-28T02:18:08.678Z,1007.86
2022-11-28T02:19:08.796Z,1007.86
2022-11-28T02:20:08.659Z,1007.84
2022-11-28T02:21:08.660Z,1007.82
2022-11-28T02:22:08.619Z,1007.78
2022-11-28T02:23:08.650Z,1007.82
2022-11-28T02:24:08.574Z,1007.80
2022-11-28T02:25:08.650Z,1007.86
2022-11-28T02:26:08.609Z,1007.80
2022-11-28T02:27:08.575Z,1007.82
2022-11-28T02:28:08.552Z,1007.84
2022-11-28T02:29:08.542Z,1007.76
2022-11-28T02:30:08.508Z,1007.74
2022-11-28T02:31:08.689Z,1007.79
2022-11-28T02:32:08.482Z,1007.71
2022-11-28T02:33:08.536Z,1007.68
2022-11-28T02:34:08.464Z,1007.70
2022-11-28T02:35:08.455Z,1007.63
2022-11-28T02:36:08.444Z,1007.63
2022-11-28T02:37:08.460Z,1007.71
2022-11-28T02:38:08.384Z,1007.72
2022-11-28T02:39:08.464Z,1007.70
2022-11-28T02:40:08.395Z,1007.74
2022-11-28T02:41:08.373Z,1007.72
2022-11-28T02:42:08.331Z,1007.72
2022-11-28T02:43:08.407Z,1007.68
2022-11-28T02:44:08.319Z,1007.66
2022-11-28T02:45:08.351Z,1007.63
2022-11-28T02:46:08.317Z,1007.65
2022-11-28T02:47:08.350Z,1007.65
2022-11-28T02:48:08.277Z,1007.58
2022-11-28T02:49:08.380Z,1007.60
2022-11-28T02:50:08.264Z,1007.60
2022-11-28T02:51:08.287Z,1007.57
2022-11-28T02:52:08.208Z,1007.58
2022-11-28T02:53:08.237Z,1007.60
2022-11-28T02:54:08.198Z,1007.61
2022-11-28T02:55:08.291Z,1007.59
2022-11-28T02:56:08.157Z,1007.57
2022-11-28T02:57:08.186Z,1007.58
2022-11-28T02:58:08.151Z,1007.51
2022-11-28T02:59:08.177Z,1007.52
2022-11-28T03:00:08.135Z,1007.52
2022-11-28T03:01:08.249Z,1007.47
2022-11-28T03:02:08.099Z,1007.49
2022-11-28T03:03:08.109Z,1007.51
2022-11-28T03:04:08.039Z,1007.45
2022-11-28T03:05:08.080Z,1007.49
2022-11-28T03:06:08.041Z,1007.54
2022-11-28T03:07:08.073Z,1007.51
2022-11-28T03:08:08.028Z,1007.53
2022-11-28T03:09:07.997Z,1007.54
2022-11-28T03:10:07.964Z,1007.56
2022-11-28T03:11:08.001Z,1007.58
2022-11-28T03:12:07.966Z,1007.63
2022-11-28T03:13:08.064Z,1007.58
2022-11-28T03:14:07.904Z,1007.61
2022-11-28T03:15:07.962Z,1007.58
2022-11-28T03:16:07.932Z,1007.56
2022-11-28T03:17:07.927Z,1007.53
2022-11-28T03:18:07.885Z,1007.57
2022-11-28T03:19:07.999Z,1007.53
2022-11-28T03:20:07.921Z,1007.54
2022-11-28T03:21:07.841Z,1007.61
2022-11-28T03:22:07.799Z,1007.54
2022-11-28T03:23:07.835Z,1007.59
2022-11-28T03:24:07.766Z,1007.60
2022-11-28T03:25:07.961Z,1007.61
2022-11-28T03:26:07.788Z,1007.60
2022-11-28T03:27:07.750Z,1007.63
2022-11-28T03:28:07.736Z,1007.67
2022-11-28T03:29:07.747Z,1007.67
2022-11-28T03:30:07.699Z,1007.64
2022-11-28T03:31:07.846Z,1007.64
2022-11-28T03:32:07.661Z,1007.64
2022-11-28T03:33:07.707Z,1007.62
2022-11-28T03:34:07.678Z,1007.62
2022-11-28T03:35:07.641Z,1007.58
2022-11-28T03:36:07.632Z,1007.59
2022-11-28T03:37:07.724Z,1007.61
2022-11-28T03:38:07.606Z,1007.61
2022-11-28T03:39:07.641Z,1007.64
2022-11-28T03:40:07.548Z,1007.57
2022-11-28T03:41:07.593Z,1007.62
2022-11-28T03:42:07.549Z,1007.59
2022-11-28T03:43:07.594Z,1007.54
2022-11-28T03:44:07.506Z,1007.52
2022-11-28T03:45:07.546Z,1007.56
2022-11-28T03:46:07.504Z,1007.56
2022-11-28T03:47:07.556Z,1007.52
2022-11-28T03:48:07.476Z,1007.54
2022-11-28T03:49:07.569Z,1007.55
2022-11-28T03:50:07.438Z,1007.51
2022-11-28T03:51:07.456Z,1007.52
2022-11-28T03:52:07.391Z,1007.50
2022-11-28T03:53:07.446Z,1007.47
2022-11-28T03:54:07.386Z,1007.49
2022-11-28T03:55:07.511Z,1007.43
2022-11-28T03:56:07.431Z,1007.47
2022-11-28T03:57:07.369Z,1007.45
2022-11-28T03:58:07.311Z,1007.45
2022-11-28T03:59:07.367Z,1007.43
2022-11-28T04:00:07.308Z,1007.47
2022-11-28T04:01:07.366Z,1007.46
2022-11-28T04:02:07.271Z,1007.43
2022-11-28T04:03:07.446Z,1007.40
2022-11-28T04:04:07.229Z,1007.48
2022-11-28T04:05:07.269Z,1007.42
2022-11-28T04:06:07.224Z,1007.47
2022-11-28T04:07:07.342Z,1007.42
2022-11-28T04:08:07.200Z,1007.42
2022-11-28T04:09:12.885Z,1007.46
2022-11-28T04:10:08.146Z,1007.41
2022-11-28T04:11:07.197Z,1007.42
2022-11-28T04:12:07.142Z,1007.43
2022-11-28T04:13:07.192Z,1007.42
2022-11-28T04:14:07.119Z,1007.49
2022-11-28T04:15:07.105Z,1007.42
2022-11-28T04:16:07.094Z,1007.49
2022-11-28T04:17:07.120Z,1007.52
2022-11-28T04:18:07.075Z,1007.44
2022-11-28T04:19:07.165Z,1007.44
2022-11-28T04:20:07.053Z,1007.45
2022-11-28T04:21:07.025Z,1007.41
2022-11-28T04:22:07.005Z,1007.38
2022-11-28T04:23:07.023Z,1007.37
2022-11-28T04:24:06.957Z,1007.36
2022-11-28T04:25:07.145Z,1007.29
2022-11-28T04:26:06.988Z,1007.31
2022-11-28T04:27:06.966Z,1007.29
2022-11-28T04:28:06.945Z,1007.32
2022-11-28T04:29:06.932Z,1007.28
2022-11-28T04:30:06.879Z,1007.21
2022-11-28T04:31:07.086Z,1007.26
2022-11-28T04:32:06.858Z,1007.29
2022-11-28T04:33:06.906Z,1007.29
2022-11-28T04:34:06.870Z,1007.28
2022-11-28T04:35:06.859Z,1007.28
2022-11-28T04:36:06.849Z,1007.23
2022-11-28T04:37:09.737Z,1007.22
2022-11-28T04:38:06.769Z,1007.25
2022-11-28T04:39:06.835Z,1007.21
2022-11-28T04:40:06.741Z,1007.23
2022-11-28T04:41:06.798Z,1007.19
2022-11-28T04:42:06.737Z,1007.20
2022-11-28T04:43:06.771Z,1007.14
2022-11-28T04:44:06.722Z,1007.17
2022-11-28T04:45:06.711Z,1007.15
2022-11-28T04:46:06.693Z,1007.09
2022-11-28T04:47:06.728Z,1007.08
2022-11-28T04:48:06.669Z,1007.13
2022-11-28T04:49:06.783Z,1007.06
2022-11-28T04:50:06.605Z,1007.07
2022-11-28T04:51:06.649Z,1007.13
2022-11-28T04:52:06.583Z,1007.11
2022-11-28T04:53:06.620Z,1007.02
2022-11-28T04:54:06.590Z,1007.13
2022-11-28T04:55:06.603Z,1007.09
2022-11-28T04:56:06.572Z,1007.07
2022-11-28T04:57:06.535Z,1007.15
2022-11-28T04:58:06.496Z,1007.12
2022-11-28T04:59:06.543Z,1007.15
2022-11-28T05:00:06.494Z,1007.16
2022-11-28T05:01:06.772Z,1007.14
2022-11-28T05:02:06.551Z,1007.12
2022-11-28T05:03:06.456Z,1007.15
2022-11-28T05:04:06.420Z,1007.21
2022-11-28T05:05:06.471Z,1007.18
2022-11-28T05:06:06.434Z,1007.21
2022-11-28T05:07:06.457Z,1007.22
2022-11-28T05:08:06.415Z,1007.24
2022-11-28T05:09:06.385Z,1007.20
2022-11-28T05:10:06.339Z,1007.23
2022-11-28T05:11:06.384Z,1007.26
2022-11-28T05:12:06.335Z,1007.28
2022-11-28T05:13:06.464Z,1007.22
2022-11-28T05:14:06.315Z,1007.23
2022-11-28T05:15:06.275Z,1007.18
2022-11-28T05:16:06.356Z,1007.25
2022-11-28T05:17:06.297Z,1007.25
2022-11-28T05:18:06.297Z,1007.28
2022-11-28T05:19:06.360Z,1007.22
2022-11-28T05:20:06.231Z,1007.22
2022-11-28T05:21:06.254Z,1007.30
2022-11-28T05:22:06.221Z,1007.31
2022-11-28T05:23:07.091Z,1007.31
2022-11-28T05:24:07.429Z,1007.27
2022-11-28T05:25:06.318Z,1007.28
2022-11-28T05:26:06.215Z,1007.30
2022-11-28T05:27:06.139Z,1007.34
2022-11-28T05:28:06.131Z,1007.28
2022-11-28T05:29:06.084Z,1007.27
2022-11-28T05:30:06.141Z,1007.33
2022-11-28T05:31:06.263Z,1007.39
2022-11-28T05:32:06.116Z,1007.33
2022-11-28T05:33:06.074Z,1007.34
2022-11-28T05:34:06.054Z,1007.36
2022-11-28T05:35:06.014Z,1007.37
2022-11-28T05:36:09.884Z,1007.34
2022-11-28T05:37:07.100Z,1007.37
2022-11-28T05:38:09.407Z,1007.39
2022-11-28T05:39:06.982Z,1007.39
2022-11-28T05:40:05.983Z,1007.43
2022-11-28T05:41:05.952Z,1007.39
2022-11-28T05:42:05.945Z,1007.43
2022-11-28T05:43:06.007Z,1007.42
2022-11-28T05:44:05.953Z,1007.45
2022-11-28T05:45:05.924Z,1007.42
2022-11-28T05:46:05.969Z,1007.37
2022-11-28T05:47:05.867Z,1007.45
2022-11-28T05:48:05.902Z,1007.43
2022-11-28T05:49:05.880Z,1007.45
2022-11-28T05:50:05.862Z,1007.38
2022-11-28T05:51:05.833Z,1007.49
2022-11-28T05:52:05.806Z,1007.50
2022-11-28T05:53:05.806Z,1007.48
2022-11-28T05:54:05.778Z,1007.51
2022-11-28T05:55:05.850Z,1007.51
2022-11-28T05:56:05.776Z,1007.51
2022-11-28T05:57:05.728Z,1007.46
2022-11-28T05:58:05.765Z,1007.50
2022-11-28T05:59:05.737Z,1007.48
2022-11-28T06:00:05.701Z,1007.47
2022-11-28T06:01:05.819Z,1007.49
2022-11-28T06:02:05.742Z,1007.45
2022-11-28T06:03:05.650Z,1007.52
2022-11-28T06:04:05.716Z,1007.54
2022-11-28T06:05:27.291Z,1007.54
2022-11-28T06:06:06.770Z,1007.59
2022-11-28T06:07:05.598Z,1007.54
2022-11-28T06:08:05.694Z,1007.57
2022-11-28T06:09:05.578Z,1007.63
2022-11-28T06:10:05.562Z,1007.64
2022-11-28T06:11:05.548Z,1007.70
2022-11-28T06:12:05.611Z,1007.62
2022-11-28T06:13:05.493Z,1007.67
2022-11-28T06:14:05.589Z,1007.68
2022-11-28T06:15:05.512Z,1007.75
2022-11-28T06:16:05.529Z,1007.68
2022-11-28T06:17:05.467Z,1007.69
2022-11-28T06:18:05.520Z,1007.67
2022-11-28T06:19:05.451Z,1007.69
2022-11-28T06:20:05.432Z,1007.69
2022-11-28T06:21:05.411Z,1007.67
2022-11-28T06:22:05.401Z,1007.70
2022-11-28T06:23:05.367Z,1007.71
2022-11-28T06:24:05.532Z,1007.66
2022-11-28T06:25:05.356Z,1007.69
2022-11-28T06:26:05.380Z,1007.59
2022-11-28T06:27:05.341Z,1007.56
2022-11-28T06:28:05.324Z,1007.59
2022-11-28T06:29:05.321Z,1007.56
2022-11-28T06:30:05.427Z,1007.62
2022-11-28T06:31:05.270Z,1007.62
2022-11-28T06:32:05.323Z,1007.60
2022-11-28T06:33:05.265Z,1007.59
2022-11-28T06:34:05.267Z,1007.60
2022-11-28T06:35:05.219Z,1007.64
2022-11-28T06:36:05.376Z,1007.56
2022-11-28T06:37:05.169Z,1007.56
2022-11-28T06:38:07.942Z,1007.60
2022-11-28T06:39:06.175Z,1007.56
2022-11-28T06:40:05.173Z,1007.57
2022-11-28T06:41:05.156Z,1007.58
2022-11-28T06:42:05.159Z,1007.59
2022-11-28T06:43:05.119Z,1007.57
2022-11-28T06:44:05.150Z,1007.54
2022-11-28T06:45:05.158Z,1007.58
2022-11-28T06:46:05.194Z,1007.58
2022-11-28T06:47:05.068Z,1007.64
2022-11-28T06:48:05.184Z,1007.65
2022-11-28T06:49:05.021Z,1007.71
2022-11-28T06:50:05.078Z,1007.66
2022-11-28T06:51:05.020Z,1007.63
2022-11-28T06:52:04.994Z,1007.64
2022-11-28T06:53:04.993Z,1007.61
2022-11-28T06:54:05.083Z,1007.59
2022-11-28T06:55:04.923Z,1007.63
2022-11-28T06:56:04.971Z,1007.66
2022-11-28T06:57:04.915Z,1007.64
2022-11-28T06:58:04.960Z,1007.62
2022-11-28T06:59:04.902Z,1007.66
2022-11-28T07:00:04.943Z,1007.68
2022-11-28T07:01:04.936Z,1007.73
2022-11-28T07:02:07.847Z,1007.73
2022-11-28T07:03:04.826Z,1007.71
2022-11-28T07:04:04.875Z,1007.72
2022-11-28T07:05:04.815Z,1007.80
2022-11-28T07:06:04.951Z,1007.84
2022-11-28T07:07:04.805Z,1007.84
2022-11-28T07:08:04.867Z,1007.78
2022-11-28T07:09:04.773Z,1007.85
2022-11-28T07:10:04.759Z,1007.89
2022-11-28T07:11:04.716Z,1007.81
2022-11-28T07:12:04.874Z,1007.86
2022-11-28T07:13:05.757Z,1007.86
2022-11-28T07:14:04.733Z,1007.90
2022-11-28T07:15:04.686Z,1007.90
2022-11-28T07:16:04.686Z,1007.95
2022-11-28T07:17:04.688Z,1007.95
2022-11-28T07:18:04.699Z,1007.96
2022-11-28T07:19:04.625Z,1007.95
2022-11-28T07:20:04.697Z,1007.97
2022-11-28T07:21:04.646Z,1007.93
2022-11-28T07:22:04.653Z,1007.96
2022-11-28T07:23:04.571Z,1008.00
2022-11-28T07:24:04.717Z,1007.96
2022-11-28T07:25:04.520Z,1007.98
2022-11-28T07:26:04.579Z,1007.99
2022-11-28T07:27:04.530Z,1007.99
2022-11-28T07:28:04.542Z,1008.00
2022-11-28T07:29:04.529Z,1008.00
2022-11-28T07:30:04.635Z,1008.00
2022-11-28T07:31:04.462Z,1007.99
2022-11-28T07:32:04.581Z,1007.97
2022-11-28T07:33:04.445Z,1007.94
2022-11-28T07:34:04.461Z,1007.99
2022-11-28T07:35:04.449Z,1007.96
2022-11-28T07:36:04.580Z,1007.96
2022-11-28T07:37:04.396Z,1007.97
2022-11-28T07:38:04.411Z,1007.98
2022-11-28T07:39:04.390Z,1007.93
2022-11-28T07:40:04.363Z,1007.97
2022-11-28T07:41:04.392Z,1008.00
2022-11-28T07:42:04.497Z,1007.99
2022-11-28T07:43:04.315Z,1008.02
2022-11-28T07:44:04.384Z,1008.02
2022-11-28T07:45:04.568Z,1008.03
2022-11-28T07:46:04.395Z,1008.02
2022-11-28T07:47:04.340Z,1008.07
2022-11-28T07:48:04.310Z,1008.07
2022-11-28T07:49:04.271Z,1008.08
2022-11-28T07:50:04.224Z,1008.09
2022-11-28T07:51:04.204Z,1008.06
2022-11-28T07:52:04.244Z,1008.04
2022-11-28T07:53:07.320Z,1008.09
2022-11-28T07:54:04.202Z,1008.02
2022-11-28T07:55:04.132Z,1008.07
2022-11-28T07:56:04.191Z,1008.11
2022-11-28T07:57:12.683Z,1008.10
2022-11-28T07:58:05.149Z,1008.11
2022-11-28T07:59:04.129Z,1008.15
2022-11-28T08:00:04.239Z,1008.13
2022-11-28T08:01:04.090Z,1008.12
2022-11-28T08:02:04.091Z,1008.05
2022-11-28T08:03:04.041Z,1008.12
2022-11-28T08:04:04.100Z,1008.07
2022-11-28T08:05:04.026Z,1008.07
2022-11-28T08:06:04.194Z,1008.08
2022-11-28T08:07:03.989Z,1008.08
2022-11-28T08:08:04.031Z,1008.14
2022-11-28T08:09:03.976Z,1008.04
2022-11-28T08:10:03.989Z,1008.08
2022-11-28T08:11:04.002Z,1007.98
2022-11-28T08:13:03.943Z,1007.97
2022-11-28T08:14:03.912Z,1008.01
2022-11-28T08:15:03.932Z,1008.05
2022-11-28T08:16:03.894Z,1007.95
2022-11-28T08:17:03.893Z,1007.96
2022-11-28T08:18:03.894Z,1007.94
2022-11-28T08:19:03.874Z,1007.94
2022-11-28T08:20:03.809Z,1007.93
2022-11-28T08:21:03.854Z,1007.90
2022-11-28T08:22:03.762Z,1008.00
2022-11-28T08:23:03.788Z,1007.93
2022-11-28T08:24:03.905Z,1007.87
2022-11-28T08:25:03.834Z,1007.90
2022-11-28T08:26:03.710Z,1007.91
2022-11-28T08:27:03.740Z,1007.88
2022-11-28T08:28:03.738Z,1007.90
2022-11-28T08:29:03.709Z,1007.89
2022-11-28T08:30:03.719Z,1007.85
2022-11-28T08:31:04.486Z,1007.84
2022-11-28T08:32:03.622Z,1007.90
2022-11-28T08:33:04.364Z,1007.94
2022-11-28T08:34:03.621Z,1007.95
2022-11-28T08:35:03.631Z,1007.94
2022-11-28T08:36:03.679Z,1007.99
2022-11-28T08:37:03.602Z,1007.97
2022-11-28T08:38:03.580Z,1008.00
2022-11-28T08:39:22.932Z,1007.98
2022-11-28T08:40:04.544Z,1007.94
2022-11-28T08:41:03.544Z,1008.02
2022-11-28T08:42:03.550Z,1007.97
2022-11-28T08:43:03.572Z,1008.02
2022-11-28T08:44:03.494Z,1008.00
2022-11-28T08:45:03.523Z,1008.00
2022-11-28T08:46:03.501Z,1007.92
2022-11-28T08:47:03.455Z,1007.94
2022-11-28T08:48:03.471Z,1007.92
2022-11-28T08:49:04.775Z,1008.03
2022-11-28T08:50:03.413Z,1007.99
2022-11-28T08:51:03.431Z,1007.99
2022-11-28T08:52:03.395Z,1008.00
2022-11-28T08:53:07.834Z,1007.96
2022-11-28T08:54:03.375Z,1007.92
2022-11-28T08:55:03.358Z,1007.95
2022-11-28T08:56:03.366Z,1007.95
2022-11-28T08:57:03.351Z,1007.94
2022-11-28T08:58:03.300Z,1007.95
2022-11-28T08:59:03.311Z,1007.95
2022-11-28T09:00:03.395Z,1007.95
2022-11-28T09:01:03.326Z,1007.97
2022-11-28T09:02:03.267Z,1007.95
2022-11-28T09:03:03.293Z,1007.98
2022-11-28T09:04:03.278Z,1007.97
2022-11-28T09:05:03.275Z,1008.01
2022-11-28T09:06:03.233Z,1008.00
2022-11-28T09:07:03.198Z,1008.00
2022-11-28T09:08:03.275Z,1007.95
2022-11-28T09:09:03.177Z,1008.00
2022-11-28T09:10:03.169Z,1007.94
2022-11-28T09:11:03.165Z,1007.97
2022-11-28T09:12:03.131Z,1007.98
2022-11-28T09:13:03.139Z,1007.94
2022-11-28T09:14:03.098Z,1007.96
2022-11-28T09:15:03.151Z,1008.00
2022-11-28T09:16:03.069Z,1008.00
2022-11-28T09:17:03.164Z,1007.94
2022-11-28T09:18:03.194Z,1007.96
2022-11-28T09:19:03.053Z,1007.96
2022-11-28T09:20:03.006Z,1007.97
2022-11-28T09:21:03.031Z,1007.97
2022-11-28T09:22:02.977Z,1007.98
2022-11-28T09:23:02.977Z,1007.99
2022-11-28T09:24:03.072Z,1007.98
2022-11-28T09:25:02.948Z,1007.98
2022-11-28T09:26:02.924Z,1008.00
2022-11-28T09:27:02.946Z,1007.96
2022-11-28T09:28:02.886Z,1007.98
2022-11-28T09:29:02.918Z,1007.96
2022-11-28T09:30:02.994Z,1007.91
2022-11-28T09:31:02.958Z,1007.92
2022-11-28T09:32:02.859Z,1007.97
2022-11-28T09:33:02.894Z,1007.98
2022-11-28T09:34:02.849Z,1007.96
2022-11-28T09:35:02.811Z,1007.94
2022-11-28T09:36:02.857Z,1007.99
2022-11-28T09:37:04.960Z,1007.93
2022-11-28T09:38:02.774Z,1007.96
2022-11-28T09:39:02.797Z,1007.96
2022-11-28T09:40:13.031Z,1007.96
2022-11-28T09:41:03.876Z,1007.92
2022-11-28T09:42:02.703Z,1007.89
2022-11-28T09:43:02.720Z,1007.93
2022-11-28T09:44:02.699Z,1007.95
2022-11-28T09:45:02.718Z,1007.93
2022-11-28T09:46:02.680Z,1007.90
2022-11-28T09:47:02.782Z,1007.86
2022-11-28T09:48:02.659Z,1007.88
2022-11-28T09:49:02.662Z,1007.83
2022-11-28T09:50:02.609Z,1007.85
2022-11-28T09:51:02.627Z,1007.85
2022-11-28T09:52:02.597Z,1007.85
2022-11-28T09:53:02.675Z,1007.89
2022-11-28T09:54:02.547Z,1007.89
2022-11-28T09:55:02.542Z,1007.89
2022-11-28T09:56:02.551Z,1007.89
2022-11-28T09:57:02.520Z,1007.92
2022-11-28T09:58:02.508Z,1007.86
2022-11-28T09:59:02.570Z,1007.89
2022-11-28T10:00:02.464Z,1007.92
2022-11-28T10:01:02.467Z,1007.94
2022-11-28T10:02:02.449Z,1007.92
2022-11-28T10:03:02.464Z,1007.92
2022-11-28T10:04:02.530Z,1007.90
2022-11-28T10:05:02.614Z,1007.95
2022-11-28T10:06:02.395Z,1007.92
2022-11-28T10:07:02.406Z,1007.91
2022-11-28T10:08:02.409Z,1007.90
2022-11-28T10:09:02.367Z,1007.92
2022-11-28T10:10:02.341Z,1007.92
2022-11-28T10:11:02.403Z,1007.90
2022-11-28T10:12:02.313Z,1007.91
2022-11-28T10:13:02.327Z,1007.87
2022-11-28T10:14:09.418Z,1007.87
2022-11-28T10:15:03.307Z,1007.93
2022-11-28T10:16:02.285Z,1007.92
2022-11-28T10:17:02.432Z,1007.91
2022-11-28T10:18:02.246Z,1007.96
2022-11-28T10:19:02.276Z,1007.94
2022-11-28T10:20:02.418Z,1007.96
2022-11-28T10:21:02.237Z,1007.97
2022-11-28T10:22:02.160Z,1007.97
2022-11-28T10:23:02.442Z,1007.97
2022-11-28T10:24:02.165Z,1007.94
2022-11-28T10:25:02.153Z,1007.95
2022-11-28T10:26:02.140Z,1007.96
2022-11-28T10:27:02.139Z,1007.96
2022-11-28T10:28:02.104Z,1008.00
2022-11-28T10:29:02.165Z,1007.99
2022-11-28T10:30:02.062Z,1007.96
2022-11-28T10:31:02.180Z,1007.97
2022-11-28T10:32:02.066Z,1007.93
2022-11-28T10:33:02.069Z,1007.96
2022-11-28T10:34:02.003Z,1007.92
2022-11-28T10:35:02.045Z,1007.90
2022-11-28T10:36:01.991Z,1007.89
2022-11-28T10:37:01.987Z,1007.87
2022-11-28T10:38:01.965Z,1007.87
2022-11-28T10:39:01.991Z,1007.84
2022-11-28T10:40:01.914Z,1007.88
2022-11-28T10:41:02.021Z,1007.88
2022-11-28T10:42:01.892Z,1007.86
2022-11-28T10:43:01.895Z,1007.81
2022-11-28T10:44:01.902Z,1007.81
2022-11-28T10:45:01.877Z,1007.82
2022-11-28T10:46:01.904Z,1007.75
2022-11-28T10:47:01.923Z,1007.78
2022-11-28T10:48:29.575Z,1007.77
2022-11-28T10:49:02.838Z,1007.78
2022-11-28T10:50:01.805Z,1007.76
2022-11-28T10:51:01.824Z,1007.80
2022-11-28T10:52:01.769Z,1007.77
2022-11-28T10:53:01.835Z,1007.81
2022-11-28T10:54:01.738Z,1007.76
2022-11-28T10:55:01.758Z,1007.78
2022-11-28T10:56:01.765Z,1007.81
2022-11-28T10:57:01.722Z,1007.84
2022-11-28T10:58:01.707Z,1007.85
2022-11-28T10:59:01.797Z,1007.82
2022-11-28T11:00:01.656Z,1007.85
2022-11-28T11:01:01.737Z,1007.85
2022-11-28T11:02:01.672Z,1007.87
2022-11-28T11:03:01.627Z,1007.84
2022-11-28T11:04:01.608Z,1007.84
2022-11-28T11:05:01.925Z,1007.84
2022-11-28T11:06:01.573Z,1007.85
2022-11-28T11:07:09.137Z,1007.84
2022-11-28T11:08:02.637Z,1007.82
2022-11-28T11:09:01.614Z,1007.85
2022-11-28T11:10:01.568Z,1007.82
2022-11-28T11:11:01.720Z,1007.85
2022-11-28T11:12:01.543Z,1007.84
2022-11-28T11:13:01.539Z,1007.85
2022-11-28T11:14:01.496Z,1007.84
2022-11-28T11:15:01.485Z,1007.83
2022-11-28T11:16:01.517Z,1007.85
2022-11-28T11:17:01.493Z,1007.82
2022-11-28T11:18:01.440Z,1007.82
2022-11-28T11:19:01.444Z,1007.79
2022-11-28T11:20:01.376Z,1007.84
2022-11-28T11:21:01.431Z,1007.84
2022-11-28T11:22:01.349Z,1007.86
2022-11-28T11:23:01.435Z,1007.80
2022-11-28T11:24:01.341Z,1007.90
2022-11-28T11:25:01.338Z,1007.76
2022-11-28T11:26:01.344Z,1007.73
2022-11-28T11:27:01.351Z,1007.78
2022-11-28T11:28:01.310Z,1007.84
2022-11-28T11:29:01.342Z,1007.66
2022-11-28T11:30:01.238Z,1007.67
2022-11-28T11:31:01.332Z,1007.69
2022-11-28T11:32:01.253Z,1007.69
2022-11-28T11:33:01.241Z,1007.67
2022-11-28T11:34:01.226Z,1007.70
2022-11-28T11:35:01.345Z,1007.66
2022-11-28T11:36:01.166Z,1007.66
2022-11-28T11:37:01.179Z,1007.68
2022-11-28T11:38:01.167Z,1007.67
2022-11-28T11:39:01.187Z,1007.68
2022-11-28T11:40:01.099Z,1007.68
2022-11-28T11:41:01.175Z,1007.69
2022-11-28T11:42:01.113Z,1007.67
2022-11-28T11:43:01.091Z,1007.61
2022-11-28T11:44:01.077Z,1007.65
2022-11-28T11:45:01.082Z,1007.69
2022-11-28T11:46:01.091Z,1007.64
2022-11-28T11:47:01.108Z,1007.64
2022-11-28T11:48:01.002Z,1007.65
2022-11-28T11:49:01.030Z,1007.71
2022-11-28T11:50:00.995Z,1007.58
2022-11-28T11:51:01.010Z,1007.66
2022-11-28T11:52:00.970Z,1007.68
2022-11-28T11:53:01.136Z,1007.69
2022-11-28T11:54:00.938Z,1007.73
2022-11-28T11:55:00.930Z,1007.68
2022-11-28T11:56:00.942Z,1007.70
2022-11-28T11:57:30.912Z,1007.67
2022-11-28T11:58:05.702Z,1007.68
2022-11-28T11:59:00.932Z,1007.68
2022-11-28T12:00:00.826Z,1007.66
2022-11-28T12:01:00.889Z,1007.62
2022-11-28T12:02:00.824Z,1007.65
2022-11-28T12:03:00.958Z,1007.65
2022-11-28T12:04:08.584Z,1007.57
2022-11-28T12:05:01.856Z,1007.58
2022-11-28T12:06:16.095Z,1007.59